createdAt,value
2019-03-26T00:04:11.804Z,2.67
2019-03-26T00:06:55.183Z,3.17
2019-03-26T00:09:45.986Z,2.87
2019-03-26T00:12:29.043Z,3.10
2019-03-26T00:15:19.904Z,2.63
2019-03-26T00:18:02.772Z,2.37
2019-03-26T00:20:53.652Z,3.00
2019-03-26T00:23:37.134Z,2.43
2019-03-26T00:26:28.056Z,2.73
2019-03-26T00:29:31.211Z,2.40
2019-03-26T00:32:23.648Z,2.60
2019-03-26T00:35:27.252Z,2.03
2019-03-26T00:38:18.167Z,3.00
2019-03-26T00:41:01.822Z,2.63
2019-03-26T00:43:52.744Z,3.70
2019-03-26T00:46:35.953Z,2.60
2019-03-26T00:49:26.885Z,2.37
2019-03-26T00:52:29.622Z,2.60
2019-03-26T00:55:22.946Z,2.60
2019-03-26T00:58:25.241Z,2.67
2019-03-26T01:01:16.183Z,2.47
2019-03-26T01:03:58.996Z,2.10
2019-03-26T01:06:49.888Z,2.63
2019-03-26T01:09:32.738Z,2.40
2019-03-26T01:12:23.628Z,2.37
2019-03-26T01:15:07.267Z,2.77
2019-03-26T01:17:58.178Z,2.57
2019-03-26T01:20:41.812Z,2.00
2019-03-26T01:23:32.759Z,1.83
2019-03-26T01:26:35.454Z,2.63
2019-03-26T01:29:26.381Z,2.60
2019-03-26T01:32:09.243Z,2.17
2019-03-26T01:35:00.327Z,2.57
2019-03-26T01:37:43.186Z,2.30
2019-03-26T01:40:34.151Z,2.90
2019-03-26T01:43:17.550Z,2.80
2019-03-26T01:46:08.476Z,2.20
2019-03-26T01:48:52.039Z,3.00
2019-03-26T01:51:42.943Z,2.77
2019-03-26T01:54:25.991Z,3.03
2019-03-26T01:57:16.931Z,2.60
2019-03-26T02:00:08.211Z,2.23
2019-03-26T02:02:51.277Z,2.40
2019-03-26T02:05:42.206Z,2.13
2019-03-26T02:08:25.795Z,2.40
2019-03-26T02:11:16.713Z,2.23
2019-03-26T02:13:59.957Z,2.17
2019-03-26T02:16:50.922Z,1.73
2019-03-26T02:19:34.589Z,2.80
2019-03-26T02:22:25.515Z,1.90
2019-03-26T02:25:08.508Z,2.20
2019-03-26T02:27:59.476Z,1.90
2019-03-26T02:30:42.584Z,2.07
2019-03-26T02:33:33.493Z,2.20
2019-03-26T02:36:16.313Z,2.67
2019-03-26T02:39:08.646Z,1.90
2019-03-26T02:41:52.079Z,1.80
2019-03-26T02:44:43.001Z,1.90
2019-03-26T02:47:26.617Z,1.70
2019-03-26T02:50:17.527Z,1.70
2019-03-26T02:53:01.278Z,1.50
2019-03-26T02:55:52.217Z,1.47
2019-03-26T02:58:35.575Z,1.50
2019-03-26T03:01:18.523Z,1.60
2019-03-26T03:04:09.426Z,1.57
2019-03-26T03:06:52.370Z,1.73
2019-03-26T03:09:43.301Z,1.77
2019-03-26T03:12:26.742Z,1.87
2019-03-26T03:15:17.685Z,1.70
2019-03-26T03:18:21.060Z,2.23
2019-03-26T03:21:12.007Z,1.97
2019-03-26T03:23:55.230Z,1.73
2019-03-26T03:26:46.165Z,1.83
2019-03-26T03:29:29.489Z,1.80
2019-03-26T03:32:20.452Z,1.77
2019-03-26T03:35:03.872Z,1.67
2019-03-26T03:37:54.795Z,1.47
2019-03-26T03:40:37.848Z,2.27
2019-03-26T03:43:28.813Z,1.60
2019-03-26T03:46:12.138Z,1.70
2019-03-26T03:49:03.394Z,1.67
2019-03-26T03:51:47.023Z,1.90
2019-03-26T03:55:16.981Z,1.53
2019-03-26T03:58:00.625Z,1.83
2019-03-26T04:00:51.549Z,1.67
2019-03-26T04:03:34.934Z,2.20
2019-03-26T04:06:25.845Z,2.03
2019-03-26T04:09:08.750Z,2.40
2019-03-26T04:11:59.691Z,1.87
2019-03-26T04:14:42.578Z,1.90
2019-03-26T04:17:33.478Z,1.97
2019-03-26T04:20:16.449Z,2.63
2019-03-26T04:23:07.372Z,2.30
2019-03-26T04:25:51.159Z,2.77
2019-03-26T04:28:42.048Z,2.03
2019-03-26T04:31:25.455Z,2.00
2019-03-26T04:34:16.360Z,2.30
2019-03-26T04:37:00.143Z,1.97
2019-03-26T04:39:51.056Z,2.00
2019-03-26T04:42:34.590Z,1.90
2019-03-26T04:45:25.522Z,2.00
2019-03-26T04:48:08.667Z,2.27
2019-03-26T04:50:59.543Z,2.60
2019-03-26T04:53:43.024Z,2.07
2019-03-26T04:56:33.903Z,1.97
2019-03-26T04:59:16.749Z,1.60
2019-03-26T05:02:00.111Z,1.97
2019-03-26T05:04:51.051Z,2.10
2019-03-26T05:07:34.356Z,1.87
2019-03-26T05:10:25.266Z,1.50
2019-03-26T05:13:08.705Z,2.23
2019-03-26T05:15:59.610Z,2.00
2019-03-26T05:18:43.019Z,1.60
2019-03-26T05:21:33.928Z,1.73
2019-03-26T05:24:17.657Z,1.80
2019-03-26T05:27:08.569Z,2.23
2019-03-26T05:29:52.036Z,1.83
2019-03-26T05:32:43.013Z,2.10
2019-03-26T05:35:25.782Z,1.87
2019-03-26T05:38:16.723Z,2.27
2019-03-26T05:40:59.676Z,2.03
2019-03-26T05:43:50.600Z,2.33
2019-03-26T05:46:34.849Z,2.20
2019-03-26T05:49:25.762Z,1.90
2019-03-26T05:52:16.703Z,2.57
2019-03-26T05:55:19.799Z,2.87
2019-03-26T05:58:10.659Z,2.07
2019-03-26T06:00:53.585Z,2.77
2019-03-26T06:03:37.212Z,2.27
2019-03-26T06:06:28.110Z,2.43
2019-03-26T06:09:11.578Z,2.30
2019-03-26T06:12:02.426Z,2.50
2019-03-26T06:14:45.392Z,2.13
2019-03-26T06:17:29.005Z,2.13
2019-03-26T06:20:19.975Z,3.00
2019-03-26T06:23:10.846Z,2.23
2019-03-26T06:26:13.845Z,1.93
2019-03-26T06:29:04.724Z,2.33
2019-03-26T06:31:48.390Z,2.40
2019-03-26T06:34:39.287Z,2.30
2019-03-26T06:37:22.226Z,2.50
2019-03-26T06:40:13.461Z,2.27
2019-03-26T06:42:56.377Z,2.13
2019-03-26T06:45:47.256Z,2.10
2019-03-26T06:48:30.701Z,2.80
2019-03-26T06:51:21.628Z,2.87
2019-03-26T06:54:05.396Z,2.50
2019-03-26T06:56:56.326Z,3.33
2019-03-26T06:59:39.933Z,2.33
2019-03-26T07:02:30.983Z,2.70
2019-03-26T07:05:21.879Z,2.60
2019-03-26T07:08:05.495Z,2.43
2019-03-26T07:10:56.372Z,2.20
2019-03-26T07:13:40.084Z,2.27
2019-03-26T07:16:31.002Z,2.30
2019-03-26T07:19:14.740Z,3.00
2019-03-26T07:22:05.592Z,2.50
2019-03-26T07:24:49.107Z,2.47
2019-03-26T07:27:40.165Z,2.13
2019-03-26T07:30:42.253Z,1.83
2019-03-26T07:33:33.151Z,2.20
2019-03-26T07:36:17.981Z,2.10
2019-03-26T07:39:09.072Z,2.10
2019-03-26T07:41:52.282Z,2.23
2019-03-26T07:44:45.458Z,2.37
2019-03-26T07:47:48.136Z,1.93
2019-03-26T07:50:39.061Z,3.13
2019-03-26T07:53:21.909Z,1.90
2019-03-26T07:56:12.819Z,1.97
2019-03-26T07:58:55.667Z,2.20
2019-03-26T08:01:46.606Z,2.87
2019-03-26T08:04:29.815Z,2.20
2019-03-26T08:07:20.790Z,2.10
2019-03-26T08:10:04.531Z,2.20
2019-03-26T08:12:55.464Z,2.20
2019-03-26T08:15:38.315Z,2.10
2019-03-26T08:18:29.247Z,2.67
2019-03-26T08:21:12.155Z,2.40
2019-03-26T08:24:03.033Z,2.40
2019-03-26T08:26:46.784Z,2.27
2019-03-26T08:29:37.659Z,2.17
2019-03-26T08:32:20.826Z,3.23
2019-03-26T08:35:11.729Z,2.97
2019-03-26T08:37:55.437Z,2.77
2019-03-26T08:40:46.508Z,2.47
2019-03-26T08:43:29.919Z,2.50
2019-03-26T08:46:20.850Z,2.23
2019-03-26T08:49:05.355Z,2.23
2019-03-26T08:51:56.221Z,1.83
2019-03-26T08:54:39.204Z,2.17
2019-03-26T08:57:30.143Z,2.27
2019-03-26T09:00:13.536Z,2.50
2019-03-26T09:03:04.453Z,2.23
2019-03-26T09:05:47.386Z,2.73
2019-03-26T09:08:38.334Z,3.17
2019-03-26T09:11:21.819Z,2.50
2019-03-26T09:14:12.727Z,3.00
2019-03-26T09:16:56.458Z,2.80
2019-03-26T09:19:47.356Z,3.20
2019-03-26T09:22:30.458Z,3.20
2019-03-26T09:25:21.345Z,3.10
2019-03-26T09:28:04.465Z,3.27
2019-03-26T09:30:55.366Z,3.00
2019-03-26T09:33:38.903Z,2.77
2019-03-26T09:36:29.815Z,2.80
2019-03-26T09:39:13.406Z,2.63
2019-03-26T09:42:04.321Z,3.20
2019-03-26T09:44:47.469Z,3.03
2019-03-26T09:47:38.440Z,3.10
2019-03-26T09:50:42.064Z,3.73
2019-03-26T09:53:32.957Z,3.63
2019-03-26T09:56:28.325Z,3.80
2019-03-26T09:59:09.071Z,3.50
2019-03-26T10:01:52.716Z,3.43
2019-03-26T10:04:43.632Z,3.33
2019-03-26T10:07:26.925Z,3.63
2019-03-26T10:10:17.980Z,3.67
2019-03-26T10:13:00.826Z,3.00
2019-03-26T10:15:51.737Z,2.47
2019-03-26T10:18:35.306Z,2.63
2019-03-26T10:21:26.233Z,2.83
2019-03-26T10:24:09.557Z,3.20
2019-03-26T10:27:00.516Z,2.37
2019-03-26T10:29:43.784Z,2.23
2019-03-26T10:32:34.731Z,2.27
2019-03-26T10:35:38.055Z,2.27
2019-03-26T10:38:29.002Z,2.40
2019-03-26T10:41:19.933Z,2.70
2019-03-26T10:44:10.876Z,2.30
2019-03-26T10:47:01.814Z,2.43
2019-03-26T10:49:52.850Z,2.63
2019-03-26T10:52:35.971Z,2.53
2019-03-26T10:55:26.898Z,2.70
2019-03-26T10:58:10.540Z,3.00
2019-03-26T11:01:01.506Z,2.37
2019-03-26T11:03:44.802Z,2.83
2019-03-26T11:06:28.131Z,2.53
2019-03-26T11:09:25.362Z,2.37
2019-03-26T11:12:24.193Z,2.17
2019-03-26T11:15:15.318Z,2.50
2019-03-26T11:18:18.305Z,2.67
2019-03-26T11:21:09.215Z,2.97
2019-03-26T11:23:52.002Z,2.60
2019-03-26T11:26:42.960Z,2.67
2019-03-26T11:29:26.194Z,2.13
2019-03-26T11:32:17.134Z,2.37
2019-03-26T11:35:00.909Z,1.70
2019-03-26T11:37:51.820Z,1.80
2019-03-26T11:40:34.687Z,2.30
2019-03-26T11:43:25.616Z,1.80
2019-03-26T11:46:16.575Z,1.63
2019-03-26T11:49:00.199Z,1.60
2019-03-26T11:51:51.119Z,1.73
2019-03-26T11:54:34.934Z,1.90
2019-03-26T11:57:18.403Z,2.17
2019-03-26T12:00:48.693Z,1.73
2019-03-26T12:03:32.470Z,1.73
2019-03-26T12:06:23.441Z,2.10
2019-03-26T12:09:07.589Z,2.97
2019-03-26T12:11:58.497Z,2.40
2019-03-26T12:14:42.212Z,2.37
2019-03-26T12:17:33.163Z,2.63
2019-03-26T12:20:16.887Z,2.37
2019-03-26T12:23:07.844Z,2.13
2019-03-26T12:25:51.271Z,2.03
2019-03-26T12:28:42.190Z,1.80
2019-03-26T12:31:45.802Z,2.60
2019-03-26T12:34:36.789Z,2.63
2019-03-26T12:37:19.989Z,2.23
2019-03-26T12:40:11.150Z,2.63
2019-03-26T12:42:54.508Z,2.40
2019-03-26T12:45:37.744Z,2.63
2019-03-26T12:48:28.673Z,2.33
2019-03-26T12:51:12.225Z,2.30
2019-03-26T12:54:03.136Z,2.60
2019-03-26T12:56:46.587Z,2.33
2019-03-26T12:59:37.500Z,2.40
2019-03-26T13:02:21.041Z,2.63
2019-03-26T13:05:12.228Z,2.17
2019-03-26T13:08:03.147Z,2.17
2019-03-26T13:10:53.598Z,2.33
2019-03-26T13:13:38.723Z,2.20
2019-03-26T13:16:21.455Z,2.30
2019-03-26T13:19:51.380Z,2.30
2019-03-26T13:22:34.880Z,2.20
2019-03-26T13:25:25.843Z,2.57
2019-03-26T13:28:08.861Z,1.90
2019-03-26T13:30:59.763Z,2.00
2019-03-26T13:33:42.858Z,2.50
2019-03-26T13:36:33.798Z,1.70
2019-03-26T13:39:16.849Z,2.20
2019-03-26T13:42:07.809Z,2.00
2019-03-26T13:44:50.895Z,2.50
2019-03-26T13:47:34.123Z,2.97
2019-03-26T13:50:25.084Z,2.80
2019-03-26T13:53:16.008Z,2.30
2019-03-26T13:55:59.614Z,2.63
2019-03-26T13:58:50.510Z,2.17
2019-03-26T14:01:33.348Z,2.40
2019-03-26T14:04:24.276Z,2.40
2019-03-26T14:07:07.877Z,3.20
2019-03-26T14:09:58.800Z,2.80
2019-03-26T14:12:49.718Z,2.90
2019-03-26T14:15:32.908Z,2.97
2019-03-26T14:18:23.832Z,3.00
2019-03-26T14:21:14.759Z,2.73
2019-03-26T14:24:05.684Z,2.80
2019-03-26T14:26:56.615Z,2.70
2019-03-26T14:29:39.803Z,4.60
2019-03-26T14:32:30.697Z,2.83
2019-03-26T14:35:21.688Z,3.17
2019-03-26T14:38:05.183Z,3.43
2019-03-26T14:41:35.106Z,2.63
2019-03-26T14:44:17.969Z,2.87
2019-03-26T14:47:01.741Z,3.00
2019-03-26T14:49:52.780Z,2.90
2019-03-26T14:52:35.857Z,2.87
2019-03-26T14:55:26.759Z,3.20
2019-03-26T14:58:10.486Z,3.70
2019-03-26T15:01:01.445Z,3.27
2019-03-26T15:03:44.979Z,2.77
2019-03-26T15:06:35.937Z,3.03
2019-03-26T15:09:18.845Z,2.73
2019-03-26T15:12:09.793Z,3.00
2019-03-26T15:14:53.382Z,3.07
2019-03-26T15:17:44.300Z,2.70
2019-03-26T15:20:27.698Z,2.80
2019-03-26T15:23:18.587Z,2.50
2019-03-26T15:26:02.355Z,2.60
2019-03-26T15:28:53.244Z,2.43
2019-03-26T15:31:36.862Z,2.37
2019-03-26T15:34:36.021Z,2.60
2019-03-26T15:37:32.541Z,2.27
2019-03-26T15:40:23.476Z,2.30
2019-03-26T15:43:06.340Z,2.37
2019-03-26T15:46:00.555Z,2.27
2019-03-26T15:48:44.309Z,2.37
2019-03-26T15:51:35.311Z,2.43
2019-03-26T15:54:18.410Z,2.47
2019-03-26T15:57:09.333Z,2.70
2019-03-26T15:59:52.905Z,2.67
2019-03-26T16:02:43.839Z,2.50
2019-03-26T16:05:27.528Z,2.17
2019-03-26T16:08:18.470Z,2.13
2019-03-26T16:11:02.186Z,2.07
2019-03-26T16:13:45.694Z,2.03
2019-03-26T16:16:36.611Z,2.30
2019-03-26T16:19:32.811Z,2.20
2019-03-26T16:22:32.411Z,2.70
2019-03-26T16:25:23.350Z,2.57
2019-03-26T16:28:06.603Z,2.40
2019-03-26T16:30:57.518Z,2.53
2019-03-26T16:33:41.300Z,2.10
2019-03-26T16:36:59.336Z,2.77
2019-03-26T16:39:55.331Z,2.67
2019-03-26T16:42:46.209Z,3.13
2019-03-26T16:45:29.488Z,3.30
2019-03-26T16:48:20.398Z,3.33
2019-03-26T16:51:03.302Z,2.97
2019-03-26T16:53:54.172Z,2.70
2019-03-26T16:56:37.758Z,3.10
2019-03-26T16:59:28.622Z,3.07
2019-03-26T17:02:11.473Z,3.07
2019-03-26T17:05:02.378Z,2.87
2019-03-26T17:07:53.267Z,2.77
2019-03-26T17:10:44.175Z,2.77
2019-03-26T17:13:35.135Z,3.27
2019-03-26T17:16:18.239Z,2.67
2019-03-26T17:19:09.152Z,2.97
2019-03-26T17:21:52.428Z,2.83
2019-03-26T17:24:43.322Z,2.33
2019-03-26T17:27:29.139Z,2.40
2019-03-26T17:30:19.433Z,1.93
2019-03-26T17:33:02.738Z,2.33
2019-03-26T17:35:53.630Z,3.20
2019-03-26T17:38:37.310Z,3.37
2019-03-26T17:41:28.182Z,2.83
2019-03-26T17:44:11.873Z,3.10
2019-03-26T17:47:02.784Z,2.73
2019-03-26T17:49:45.888Z,3.20
2019-03-26T17:52:36.790Z,3.00
2019-03-26T17:55:20.285Z,2.53
2019-03-26T17:58:11.259Z,2.80
2019-03-26T18:00:54.692Z,2.60
2019-03-26T18:03:45.676Z,2.70
2019-03-26T18:06:36.559Z,2.60
2019-03-26T18:09:27.452Z,2.97
2019-03-26T18:12:10.358Z,2.33
2019-03-26T18:15:01.229Z,2.50
2019-03-26T18:17:44.342Z,2.60
2019-03-26T18:20:35.209Z,2.67
2019-03-26T18:23:19.011Z,3.03
2019-03-26T18:26:09.975Z,2.70
2019-03-26T18:28:55.418Z,2.50
2019-03-26T18:31:46.279Z,2.30
2019-03-26T18:34:29.595Z,2.60
2019-03-26T18:37:20.512Z,2.70
2019-03-26T18:40:03.499Z,2.90
2019-03-26T18:42:54.459Z,2.40
2019-03-26T18:45:38.054Z,2.50
2019-03-26T18:48:28.954Z,2.70
2019-03-26T18:51:11.974Z,2.73
2019-03-26T18:54:02.929Z,2.90
2019-03-26T18:56:45.700Z,2.73
2019-03-26T18:59:36.590Z,2.90
2019-03-26T19:02:27.517Z,3.20
2019-03-26T19:05:10.414Z,2.70
2019-03-26T19:08:01.409Z,3.00
2019-03-26T19:10:44.439Z,3.30
2019-03-26T19:13:27.711Z,2.83
2019-03-26T19:16:18.646Z,3.63
2019-03-26T19:19:21.937Z,2.50
2019-03-26T19:22:12.864Z,3.40
2019-03-26T19:24:55.695Z,3.00
2019-03-26T19:27:46.657Z,2.90
2019-03-26T19:30:29.602Z,2.93
2019-03-26T19:33:20.520Z,3.33
2019-03-26T19:36:04.310Z,2.90
2019-03-26T19:38:55.248Z,2.83
2019-03-26T19:41:38.724Z,3.43
2019-03-26T19:44:29.651Z,3.00
2019-03-26T19:47:12.982Z,3.93
2019-03-26T19:50:03.907Z,3.43
2019-03-26T19:52:47.466Z,3.80
2019-03-26T19:55:38.364Z,3.00
2019-03-26T19:58:21.649Z,3.30
2019-03-26T20:01:12.577Z,2.70
2019-03-26T20:03:55.525Z,3.10
2019-03-26T20:06:46.499Z,3.73
2019-03-26T20:09:29.747Z,3.33
2019-03-26T20:12:20.676Z,2.87
2019-03-26T20:15:04.097Z,2.90
2019-03-26T20:17:55.091Z,3.10
2019-03-26T20:20:38.883Z,3.03
2019-03-26T20:23:29.896Z,2.53
2019-03-26T20:26:12.979Z,3.17
2019-03-26T20:29:03.968Z,3.30
2019-03-26T20:31:47.021Z,3.13
2019-03-26T20:34:37.979Z,3.43
2019-03-26T20:37:21.786Z,3.77
2019-03-26T20:40:51.817Z,3.70
2019-03-26T20:43:37.628Z,3.80
2019-03-26T20:46:27.813Z,3.70
2019-03-26T20:49:18.716Z,3.93
2019-03-26T20:52:01.801Z,3.80
2019-03-26T20:54:52.714Z,4.00
2019-03-26T20:57:35.728Z,3.93
2019-03-26T21:01:13.380Z,4.10
2019-03-26T21:03:56.624Z,4.10
2019-03-26T21:06:47.596Z,4.40
2019-03-26T21:09:38.533Z,3.93
2019-03-26T21:12:29.467Z,3.60
2019-03-26T21:15:12.996Z,3.77
2019-03-26T21:18:04.030Z,4.77
2019-03-26T21:20:46.824Z,4.13
2019-03-26T21:23:31.379Z,4.10
2019-03-26T21:26:22.303Z,3.57
2019-03-26T21:29:13.216Z,4.07
2019-03-26T21:31:56.275Z,4.53
2019-03-26T21:34:47.217Z,4.30
2019-03-26T21:37:30.482Z,4.73
2019-03-26T21:40:21.495Z,4.60
2019-03-26T21:43:04.919Z,4.57
2019-03-26T21:45:55.866Z,4.73
2019-03-26T21:48:38.882Z,4.37
2019-03-26T21:51:10.920Z,5.00
2019-03-26T21:53:54.305Z,4.40
2019-03-26T21:56:45.217Z,4.47
2019-03-26T21:59:28.877Z,4.90
2019-03-26T22:02:19.780Z,4.63
2019-03-26T22:05:02.951Z,5.00
2019-03-26T22:07:53.843Z,4.77
2019-03-26T22:10:37.396Z,4.67
2019-03-26T22:13:28.278Z,5.23
2019-03-26T22:16:11.951Z,4.73
2019-03-26T22:19:02.885Z,4.63
2019-03-26T22:21:45.764Z,4.80
2019-03-26T22:24:36.691Z,4.73
2019-03-26T22:27:20.041Z,4.93
2019-03-26T22:33:39.409Z,5.10
2019-03-26T22:36:30.316Z,5.80
2019-03-26T22:39:21.222Z,5.30
2019-03-26T22:42:04.255Z,5.77
2019-03-26T22:44:55.199Z,5.27
2019-03-26T22:47:38.394Z,5.67
2019-03-26T22:50:29.292Z,6.10
2019-03-26T22:53:12.855Z,6.10
2019-03-26T22:56:03.910Z,6.50
2019-03-26T22:58:46.749Z,6.10
2019-03-26T23:01:37.661Z,6.30
2019-03-26T23:04:20.579Z,6.43
2019-03-26T23:07:11.482Z,6.67
2019-03-26T23:09:54.640Z,6.47
2019-03-26T23:12:45.559Z,6.57
2019-03-26T23:15:29.315Z,7.50
2019-03-26T23:18:12.273Z,7.67
2019-03-26T23:21:03.180Z,7.40
2019-03-26T23:23:46.713Z,7.40
2019-03-26T23:26:37.618Z,7.00
2019-03-26T23:29:20.512Z,7.43
2019-03-26T23:32:11.476Z,7.73
2019-03-26T23:34:55.038Z,7.40
2019-03-26T23:37:45.994Z,7.60
2019-03-26T23:40:29.554Z,7.47
2019-03-26T23:43:20.432Z,7.13
2019-03-26T23:46:04.011Z,7.30
2019-03-26T23:48:54.937Z,7.47
2019-03-26T23:51:38.706Z,7.50
2019-03-26T23:54:29.668Z,7.50
2019-03-26T23:57:13.352Z,7.60
